sensor_id;sensor_type;location;lat;lon;timestamp;P1;durP1;ratioP1;P2;durP2;ratioP2
45536;SDS011;31262;51.978;5.924;2022-09-13T00:01:55;5.82;;;4.00;;
45536;SDS011;31262;51.978;5.924;2022-09-13T00:04:20;7.13;;;4.78;;
45536;SDS011;31262;51.978;5.924;2022-09-13T00:06:46;5.72;;;3.97;;
45536;SDS011;31262;51.978;5.924;2022-09-13T00:09:11;8.25;;;4.50;;
45536;SDS011;31262;51.978;5.924;2022-09-13T00:11:37;7.28;;;4.53;;
45536;SDS011;31262;51.978;5.924;2022-09-13T00:14:03;6.65;;;4.25;;
45536;SDS011;31262;51.978;5.924;2022-09-13T00:16:29;6.47;;;4.70;;
45536;SDS011;31262;51.978;5.924;2022-09-13T00:18:55;7.75;;;4.78;;
45536;SDS011;31262;51.978;5.924;2022-09-13T00:21:21;5.35;;;3.95;;
45536;SDS011;31262;51.978;5.924;2022-09-13T00:23:49;6.45;;;4.68;;
45536;SDS011;31262;51.978;5.924;2022-09-13T00:26:17;8.37;;;5.13;;
45536;SDS011;31262;51.978;5.924;2022-09-13T00:31:19;7.22;;;4.72;;
45536;SDS011;31262;51.978;5.924;2022-09-13T00:36:13;5.97;;;4.38;;
45536;SDS011;31262;51.978;5.924;2022-09-13T00:38:39;6.28;;;4.20;;
45536;SDS011;31262;51.978;5.924;2022-09-13T00:41:07;6.18;;;4.38;;
45536;SDS011;31262;51.978;5.924;2022-09-13T00:43:44;5.88;;;4.45;;
45536;SDS011;31262;51.978;5.924;2022-09-13T00:46:15;6.38;;;4.28;;
45536;SDS011;31262;51.978;5.924;2022-09-13T00:48:44;6.13;;;3.88;;
45536;SDS011;31262;51.978;5.924;2022-09-13T00:51:11;5.50;;;4.32;;
45536;SDS011;31262;51.978;5.924;2022-09-13T00:53:38;6.30;;;5.30;;
45536;SDS011;31262;51.978;5.924;2022-09-13T00:56:12;7.88;;;5.38;;
45536;SDS011;31262;51.978;5.924;2022-09-13T00:58:46;6.25;;;5.00;;
45536;SDS011;31262;51.978;5.924;2022-09-13T01:01:14;8.38;;;5.32;;
45536;SDS011;31262;51.978;5.924;2022-09-13T01:03:41;6.47;;;4.90;;
45536;SDS011;31262;51.978;5.924;2022-09-13T01:06:10;5.78;;;4.55;;
45536;SDS011;31262;51.978;5.924;2022-09-13T01:08:40;6.00;;;4.32;;
45536;SDS011;31262;51.978;5.924;2022-09-13T01:11:10;5.97;;;4.68;;
45536;SDS011;31262;51.978;5.924;2022-09-13T01:13:43;5.05;;;3.80;;
45536;SDS011;31262;51.978;5.924;2022-09-13T01:16:09;5.72;;;4.75;;
45536;SDS011;31262;51.978;5.924;2022-09-13T01:18:35;6.18;;;4.72;;
45536;SDS011;31262;51.978;5.924;2022-09-13T01:24:09;7.15;;;4.45;;
45536;SDS011;31262;51.978;5.924;2022-09-13T01:30:09;6.78;;;5.32;;
45536;SDS011;31262;51.978;5.924;2022-09-13T01:38:26;7.50;;;4.43;;
45536;SDS011;31262;51.978;5.924;2022-09-13T01:43:57;7.10;;;4.88;;
45536;SDS011;31262;51.978;5.924;2022-09-13T01:46:55;6.13;;;5.20;;
45536;SDS011;31262;51.978;5.924;2022-09-13T01:49:26;8.18;;;5.30;;
45536;SDS011;31262;51.978;5.924;2022-09-13T01:51:59;7.45;;;5.13;;
45536;SDS011;31262;51.978;5.924;2022-09-13T01:54:30;8.13;;;4.95;;
45536;SDS011;31262;51.978;5.924;2022-09-13T01:56:59;7.60;;;5.13;;
45536;SDS011;31262;51.978;5.924;2022-09-13T01:59:35;6.50;;;4.35;;
45536;SDS011;31262;51.978;5.924;2022-09-13T02:02:11;6.07;;;4.72;;
45536;SDS011;31262;51.978;5.924;2022-09-13T02:04:47;8.95;;;5.78;;
45536;SDS011;31262;51.978;5.924;2022-09-13T02:07:19;6.63;;;5.43;;
45536;SDS011;31262;51.978;5.924;2022-09-13T02:09:50;6.25;;;4.32;;
45536;SDS011;31262;51.978;5.924;2022-09-13T02:12:21;6.88;;;4.90;;
45536;SDS011;31262;51.978;5.924;2022-09-13T02:14:55;5.88;;;4.60;;
45536;SDS011;31262;51.978;5.924;2022-09-13T02:17:46;5.35;;;3.47;;
45536;SDS011;31262;51.978;5.924;2022-09-13T02:20:32;6.25;;;4.38;;
45536;SDS011;31262;51.978;5.924;2022-09-13T02:23:04;8.70;;;5.43;;
45536;SDS011;31262;51.978;5.924;2022-09-13T02:25:36;6.93;;;4.57;;
45536;SDS011;31262;51.978;5.924;2022-09-13T02:28:05;5.72;;;3.47;;
45536;SDS011;31262;51.978;5.924;2022-09-13T02:30:37;6.25;;;4.97;;
45536;SDS011;31262;51.978;5.924;2022-09-13T02:33:11;6.50;;;5.03;;
45536;SDS011;31262;51.978;5.924;2022-09-13T02:36:03;6.43;;;4.88;;
45536;SDS011;31262;51.978;5.924;2022-09-13T02:38:31;7.00;;;4.82;;
45536;SDS011;31262;51.978;5.924;2022-09-13T02:41:13;7.32;;;4.65;;
45536;SDS011;31262;51.978;5.924;2022-09-13T02:43:52;5.90;;;4.10;;
45536;SDS011;31262;51.978;5.924;2022-09-13T02:49:12;3.95;;;2.83;;
45536;SDS011;31262;51.978;5.924;2022-09-13T02:54:40;5.82;;;3.45;;
45536;SDS011;31262;51.978;5.924;2022-09-13T02:57:27;6.32;;;4.57;;
45536;SDS011;31262;51.978;5.924;2022-09-13T02:59:58;5.88;;;4.05;;
45536;SDS011;31262;51.978;5.924;2022-09-13T03:02:26;5.10;;;4.10;;
45536;SDS011;31262;51.978;5.924;2022-09-13T03:04:55;7.07;;;5.28;;
45536;SDS011;31262;51.978;5.924;2022-09-13T03:07:23;7.80;;;5.57;;
45536;SDS011;31262;51.978;5.924;2022-09-13T03:09:49;6.95;;;5.55;;
45536;SDS011;31262;51.978;5.924;2022-09-13T03:18:22;8.02;;;4.97;;
45536;SDS011;31262;51.978;5.924;2022-09-13T03:21:20;8.00;;;4.90;;
45536;SDS011;31262;51.978;5.924;2022-09-13T03:24:08;6.00;;;3.83;;
45536;SDS011;31262;51.978;5.924;2022-09-13T03:32:15;5.82;;;4.43;;
45536;SDS011;31262;51.978;5.924;2022-09-13T03:43:00;5.93;;;4.17;;
45536;SDS011;31262;51.978;5.924;2022-09-13T03:45:31;6.78;;;5.20;;
45536;SDS011;31262;51.978;5.924;2022-09-13T03:48:01;5.93;;;4.43;;
45536;SDS011;31262;51.978;5.924;2022-09-13T03:50:28;7.20;;;4.90;;
45536;SDS011;31262;51.978;5.924;2022-09-13T03:52:56;6.65;;;4.55;;
45536;SDS011;31262;51.978;5.924;2022-09-13T03:55:25;6.68;;;4.60;;
45536;SDS011;31262;51.978;5.924;2022-09-13T03:57:51;7.03;;;4.80;;
45536;SDS011;31262;51.978;5.924;2022-09-13T04:00:17;5.47;;;4.47;;
45536;SDS011;31262;51.978;5.924;2022-09-13T04:02:43;8.65;;;5.28;;
45536;SDS011;31262;51.978;5.924;2022-09-13T04:05:09;7.35;;;3.97;;
45536;SDS011;31262;51.978;5.924;2022-09-13T04:07:34;6.50;;;5.10;;
45536;SDS011;31262;51.978;5.924;2022-09-13T04:10:00;9.50;;;6.05;;
45536;SDS011;31262;51.978;5.924;2022-09-13T04:12:26;6.85;;;4.70;;
45536;SDS011;31262;51.978;5.924;2022-09-13T04:14:55;9.48;;;5.80;;
45536;SDS011;31262;51.978;5.924;2022-09-13T04:17:21;6.85;;;4.50;;
45536;SDS011;31262;51.978;5.924;2022-09-13T04:19:47;7.28;;;5.30;;
45536;SDS011;31262;51.978;5.924;2022-09-13T04:22:13;7.25;;;5.32;;
45536;SDS011;31262;51.978;5.924;2022-09-13T04:24:39;6.40;;;5.07;;
45536;SDS011;31262;51.978;5.924;2022-09-13T04:27:04;7.75;;;5.75;;
45536;SDS011;31262;51.978;5.924;2022-09-13T04:29:31;7.68;;;5.82;;
45536;SDS011;31262;51.978;5.924;2022-09-13T04:31:57;8.48;;;6.18;;
45536;SDS011;31262;51.978;5.924;2022-09-13T04:34:23;8.25;;;6.03;;
45536;SDS011;31262;51.978;5.924;2022-09-13T04:36:49;7.57;;;5.95;;
45536;SDS011;31262;51.978;5.924;2022-09-13T04:39:17;9.70;;;6.55;;
45536;SDS011;31262;51.978;5.924;2022-09-13T04:41:44;10.65;;;6.65;;
45536;SDS011;31262;51.978;5.924;2022-09-13T04:44:11;9.77;;;7.07;;
45536;SDS011;31262;51.978;5.924;2022-09-13T04:46:36;8.82;;;6.43;;
45536;SDS011;31262;51.978;5.924;2022-09-13T04:49:02;9.23;;;7.03;;
45536;SDS011;31262;51.978;5.924;2022-09-13T04:51:28;7.07;;;4.78;;
45536;SDS011;31262;51.978;5.924;2022-09-13T04:53:54;6.25;;;3.65;;
45536;SDS011;31262;51.978;5.924;2022-09-13T04:56:21;5.10;;;2.50;;
45536;SDS011;31262;51.978;5.924;2022-09-13T04:58:49;5.20;;;2.55;;
45536;SDS011;31262;51.978;5.924;2022-09-13T05:01:15;8.00;;;5.78;;
45536;SDS011;31262;51.978;5.924;2022-09-13T05:03:40;9.57;;;6.75;;
45536;SDS011;31262;51.978;5.924;2022-09-13T05:06:07;9.20;;;7.05;;
45536;SDS011;31262;51.978;5.924;2022-09-13T05:08:35;7.13;;;4.95;;
45536;SDS011;31262;51.978;5.924;2022-09-13T05:11:01;8.88;;;7.05;;
45536;SDS011;31262;51.978;5.924;2022-09-13T05:13:27;10.93;;;7.75;;
45536;SDS011;31262;51.978;5.924;2022-09-13T05:15:53;10.50;;;7.38;;
45536;SDS011;31262;51.978;5.924;2022-09-13T05:18:29;9.40;;;7.43;;
45536;SDS011;31262;51.978;5.924;2022-09-13T05:21:00;11.10;;;8.30;;
45536;SDS011;31262;51.978;5.924;2022-09-13T05:23:27;9.63;;;8.05;;
45536;SDS011;31262;51.978;5.924;2022-09-13T05:28:24;10.23;;;8.05;;
45536;SDS011;31262;51.978;5.924;2022-09-13T05:33:25;9.55;;;7.97;;
45536;SDS011;31262;51.978;5.924;2022-09-13T05:35:52;11.88;;;8.25;;
45536;SDS011;31262;51.978;5.924;2022-09-13T05:38:18;11.38;;;8.68;;
45536;SDS011;31262;51.978;5.924;2022-09-13T05:40:44;13.88;;;9.02;;
45536;SDS011;31262;51.978;5.924;2022-09-13T05:43:10;13.30;;;9.23;;
45536;SDS011;31262;51.978;5.924;2022-09-13T05:45:36;11.40;;;8.85;;
45536;SDS011;31262;51.978;5.924;2022-09-13T05:48:01;13.00;;;9.43;;
45536;SDS011;31262;51.978;5.924;2022-09-13T05:50:27;12.27;;;8.25;;
45536;SDS011;31262;51.978;5.924;2022-09-13T05:52:53;12.68;;;8.98;;
45536;SDS011;31262;51.978;5.924;2022-09-13T05:55:19;10.15;;;8.77;;
45536;SDS011;31262;51.978;5.924;2022-09-13T05:57:45;12.00;;;7.65;;
45536;SDS011;31262;51.978;5.924;2022-09-13T06:00:10;12.52;;;8.15;;
45536;SDS011;31262;51.978;5.924;2022-09-13T06:02:37;10.10;;;8.50;;
45536;SDS011;31262;51.978;5.924;2022-09-13T06:05:02;12.50;;;8.35;;
45536;SDS011;31262;51.978;5.924;2022-09-13T06:07:28;13.90;;;9.43;;
45536;SDS011;31262;51.978;5.924;2022-09-13T06:09:53;11.60;;;7.75;;
45536;SDS011;31262;51.978;5.924;2022-09-13T06:12:19;11.88;;;8.43;;
45536;SDS011;31262;51.978;5.924;2022-09-13T06:14:45;11.15;;;8.32;;
45536;SDS011;31262;51.978;5.924;2022-09-13T06:17:10;11.30;;;8.15;;
45536;SDS011;31262;51.978;5.924;2022-09-13T06:19:36;11.23;;;8.35;;
45536;SDS011;31262;51.978;5.924;2022-09-13T06:22:01;11.02;;;8.68;;
45536;SDS011;31262;51.978;5.924;2022-09-13T06:24:27;11.68;;;9.00;;
45536;SDS011;31262;51.978;5.924;2022-09-13T06:26:52;9.85;;;7.50;;
45536;SDS011;31262;51.978;5.924;2022-09-13T06:29:18;12.27;;;9.40;;
45536;SDS011;31262;51.978;5.924;2022-09-13T06:31:44;11.52;;;9.57;;
45536;SDS011;31262;51.978;5.924;2022-09-13T06:34:10;11.00;;;8.80;;
45536;SDS011;31262;51.978;5.924;2022-09-13T06:36:39;12.40;;;9.27;;
45536;SDS011;31262;51.978;5.924;2022-09-13T06:39:05;12.02;;;9.55;;
45536;SDS011;31262;51.978;5.924;2022-09-13T06:41:30;12.00;;;9.15;;
45536;SDS011;31262;51.978;5.924;2022-09-13T06:43:57;11.40;;;9.43;;
45536;SDS011;31262;51.978;5.924;2022-09-13T06:46:24;13.07;;;10.18;;
45536;SDS011;31262;51.978;5.924;2022-09-13T06:48:52;14.15;;;10.45;;
45536;SDS011;31262;51.978;5.924;2022-09-13T06:51:20;14.98;;;10.15;;
45536;SDS011;31262;51.978;5.924;2022-09-13T06:53:47;13.63;;;10.53;;
45536;SDS011;31262;51.978;5.924;2022-09-13T06:56:19;12.80;;;9.82;;
45536;SDS011;31262;51.978;5.924;2022-09-13T06:58:48;14.27;;;10.60;;
45536;SDS011;31262;51.978;5.924;2022-09-13T07:03:50;14.60;;;9.32;;
45536;SDS011;31262;51.978;5.924;2022-09-13T07:06:18;16.42;;;10.95;;
45536;SDS011;31262;51.978;5.924;2022-09-13T07:08:46;13.60;;;10.77;;
45536;SDS011;31262;51.978;5.924;2022-09-13T07:11:13;13.77;;;10.90;;
45536;SDS011;31262;51.978;5.924;2022-09-13T07:16:11;13.40;;;8.70;;
45536;SDS011;31262;51.978;5.924;2022-09-13T07:18:37;13.35;;;10.20;;
45536;SDS011;31262;51.978;5.924;2022-09-13T07:21:06;17.13;;;11.38;;
45536;SDS011;31262;51.978;5.924;2022-09-13T07:23:34;15.20;;;10.25;;
45536;SDS011;31262;51.978;5.924;2022-09-13T07:26:02;15.02;;;10.38;;
45536;SDS011;31262;51.978;5.924;2022-09-13T07:28:42;15.30;;;10.25;;
45536;SDS011;31262;51.978;5.924;2022-09-13T07:31:12;16.60;;;10.52;;
45536;SDS011;31262;51.978;5.924;2022-09-13T07:33:39;13.80;;;10.65;;
45536;SDS011;31262;51.978;5.924;2022-09-13T07:36:06;16.60;;;11.20;;
45536;SDS011;31262;51.978;5.924;2022-09-13T07:38:37;17.05;;;11.52;;
45536;SDS011;31262;51.978;5.924;2022-09-13T07:41:09;15.32;;;11.32;;
45536;SDS011;31262;51.978;5.924;2022-09-13T07:43:36;14.60;;;9.60;;
45536;SDS011;31262;51.978;5.924;2022-09-13T07:46:06;12.65;;;9.38;;
45536;SDS011;31262;51.978;5.924;2022-09-13T07:48:35;13.65;;;9.27;;
45536;SDS011;31262;51.978;5.924;2022-09-13T07:51:03;13.10;;;8.65;;
45536;SDS011;31262;51.978;5.924;2022-09-13T07:53:32;11.00;;;7.10;;
45536;SDS011;31262;51.978;5.924;2022-09-13T07:56:02;10.63;;;7.20;;
45536;SDS011;31262;51.978;5.924;2022-09-13T07:58:33;10.52;;;6.15;;
45536;SDS011;31262;51.978;5.924;2022-09-13T08:01:07;10.30;;;6.25;;
45536;SDS011;31262;51.978;5.924;2022-09-13T08:03:52;9.18;;;6.40;;
45536;SDS011;31262;51.978;5.924;2022-09-13T08:06:19;8.75;;;4.38;;
45536;SDS011;31262;51.978;5.924;2022-09-13T08:08:46;6.32;;;3.35;;
45536;SDS011;31262;51.978;5.924;2022-09-13T08:11:15;9.70;;;4.22;;
45536;SDS011;31262;51.978;5.924;2022-09-13T08:13:46;8.70;;;4.35;;
45536;SDS011;31262;51.978;5.924;2022-09-13T08:16:12;6.10;;;3.65;;
45536;SDS011;31262;51.978;5.924;2022-09-13T08:18:42;4.43;;;2.35;;
45536;SDS011;31262;51.978;5.924;2022-09-13T08:21:12;2.88;;;1.38;;
45536;SDS011;31262;51.978;5.924;2022-09-13T08:23:40;3.53;;;1.58;;
45536;SDS011;31262;51.978;5.924;2022-09-13T08:26:05;4.03;;;1.77;;
45536;SDS011;31262;51.978;5.924;2022-09-13T08:28:33;3.25;;;1.30;;
45536;SDS011;31262;51.978;5.924;2022-09-13T08:31:01;3.75;;;1.65;;
45536;SDS011;31262;51.978;5.924;2022-09-13T08:33:30;5.97;;;2.80;;
45536;SDS011;31262;51.978;5.924;2022-09-13T08:35:56;5.63;;;2.90;;
45536;SDS011;31262;51.978;5.924;2022-09-13T08:38:22;8.02;;;3.88;;
45536;SDS011;31262;51.978;5.924;2022-09-13T08:40:49;6.60;;;4.22;;
45536;SDS011;31262;51.978;5.924;2022-09-13T08:48:46;10.77;;;5.80;;
45536;SDS011;31262;51.978;5.924;2022-09-13T08:54:08;8.50;;;5.70;;
45536;SDS011;31262;51.978;5.924;2022-09-13T08:56:50;11.30;;;6.90;;
45536;SDS011;31262;51.978;5.924;2022-09-13T08:59:23;10.30;;;5.78;;
45536;SDS011;31262;51.978;5.924;2022-09-13T09:07:46;9.05;;;5.93;;
45536;SDS011;31262;51.978;5.924;2022-09-13T09:10:24;8.48;;;5.70;;
45536;SDS011;31262;51.978;5.924;2022-09-13T09:16:10;8.02;;;5.90;;
45536;SDS011;31262;51.978;5.924;2022-09-13T09:18:31;7.50;;;5.25;;
45536;SDS011;31262;51.978;5.924;2022-09-13T09:21:02;8.48;;;6.25;;
45536;SDS011;31262;51.978;5.924;2022-09-13T09:25:59;7.55;;;4.50;;
45536;SDS011;31262;51.978;5.924;2022-09-13T09:28:38;6.68;;;4.72;;
45536;SDS011;31262;51.978;5.924;2022-09-13T09:31:07;6.53;;;5.30;;
45536;SDS011;31262;51.978;5.924;2022-09-13T09:36:55;6.18;;;2.80;;
45536;SDS011;31262;51.978;5.924;2022-09-13T09:39:38;5.55;;;3.15;;
45536;SDS011;31262;51.978;5.924;2022-09-13T09:42:14;5.72;;;3.50;;
45536;SDS011;31262;51.978;5.924;2022-09-13T09:44:46;6.40;;;4.13;;
45536;SDS011;31262;51.978;5.924;2022-09-13T09:47:21;5.38;;;2.47;;
45536;SDS011;31262;51.978;5.924;2022-09-13T09:49:52;5.80;;;2.67;;
45536;SDS011;31262;51.978;5.924;2022-09-13T09:55:10;3.92;;;2.28;;
45536;SDS011;31262;51.978;5.924;2022-09-13T09:57:49;5.25;;;1.75;;
45536;SDS011;31262;51.978;5.924;2022-09-13T10:00:27;3.90;;;2.03;;
45536;SDS011;31262;51.978;5.924;2022-09-13T10:02:58;6.13;;;2.60;;
45536;SDS011;31262;51.978;5.924;2022-09-13T10:05:33;4.55;;;1.65;;
45536;SDS011;31262;51.978;5.924;2022-09-13T10:08:00;3.90;;;1.85;;
45536;SDS011;31262;51.978;5.924;2022-09-13T10:10:42;3.42;;;1.60;;
45536;SDS011;31262;51.978;5.924;2022-09-13T10:13:13;3.35;;;1.45;;
45536;SDS011;31262;51.978;5.924;2022-09-13T10:15:51;4.07;;;1.40;;
45536;SDS011;31262;51.978;5.924;2022-09-13T10:18:28;3.92;;;1.33;;
45536;SDS011;31262;51.978;5.924;2022-09-13T10:23:41;4.13;;;1.35;;
45536;SDS011;31262;51.978;5.924;2022-09-13T10:26:12;3.13;;;1.10;;
45536;SDS011;31262;51.978;5.924;2022-09-13T10:29:28;3.22;;;1.10;;
45536;SDS011;31262;51.978;5.924;2022-09-13T10:31:52;3.47;;;1.05;;
45536;SDS011;31262;51.978;5.924;2022-09-13T10:34:26;2.47;;;1.15;;
45536;SDS011;31262;51.978;5.924;2022-09-13T10:37:00;2.83;;;1.02;;
45536;SDS011;31262;51.978;5.924;2022-09-13T10:39:38;3.83;;;1.33;;
45536;SDS011;31262;51.978;5.924;2022-09-13T10:42:33;3.60;;;1.08;;
45536;SDS011;31262;51.978;5.924;2022-09-13T10:45:01;2.53;;;1.00;;
45536;SDS011;31262;51.978;5.924;2022-09-13T10:50:10;2.85;;;0.77;;
45536;SDS011;31262;51.978;5.924;2022-09-13T10:52:50;2.35;;;0.90;;
45536;SDS011;31262;51.978;5.924;2022-09-13T10:55:30;3.00;;;1.20;;
45536;SDS011;31262;51.978;5.924;2022-09-13T11:00:34;2.60;;;1.17;;
45536;SDS011;31262;51.978;5.924;2022-09-13T11:08:55;1.63;;;0.50;;
45536;SDS011;31262;51.978;5.924;2022-09-13T11:14:17;2.33;;;0.40;;
45536;SDS011;31262;51.978;5.924;2022-09-13T11:36:28;1.35;;;0.30;;
45536;SDS011;31262;51.978;5.924;2022-09-13T11:39:33;2.00;;;0.35;;
45536;SDS011;31262;51.978;5.924;2022-09-13T11:58:00;1.05;;;0.20;;
45536;SDS011;31262;51.978;5.924;2022-09-13T12:00:34;1.55;;;0.20;;
45536;SDS011;31262;51.978;5.924;2022-09-13T12:03:09;0.70;;;0.20;;
45536;SDS011;31262;51.978;5.924;2022-09-13T12:05:56;0.98;;;0.20;;
45536;SDS011;31262;51.978;5.924;2022-09-13T12:09:10;1.67;;;0.28;;
45536;SDS011;31262;51.978;5.924;2022-09-13T12:11:20;0.93;;;0.20;;
45536;SDS011;31262;51.978;5.924;2022-09-13T12:14:00;1.58;;;0.20;;
45536;SDS011;31262;51.978;5.924;2022-09-13T12:16:39;0.70;;;0.20;;
45536;SDS011;31262;51.978;5.924;2022-09-13T12:21:39;1.40;;;0.20;;
45536;SDS011;31262;51.978;5.924;2022-09-13T12:29:39;1.25;;;0.20;;
45536;SDS011;31262;51.978;5.924;2022-09-13T12:32:10;2.15;;;0.35;;
45536;SDS011;31262;51.978;5.924;2022-09-13T12:34:39;2.30;;;0.20;;
45536;SDS011;31262;51.978;5.924;2022-09-13T12:59:07;1.13;;;0.20;;
45536;SDS011;31262;51.978;5.924;2022-09-13T13:01:48;1.25;;;0.10;;
45536;SDS011;31262;51.978;5.924;2022-09-13T13:04:33;0.93;;;0.20;;
45536;SDS011;31262;51.978;5.924;2022-09-13T13:07:05;1.65;;;0.22;;
45536;SDS011;31262;51.978;5.924;2022-09-13T13:09:49;1.20;;;0.20;;
45536;SDS011;31262;51.978;5.924;2022-09-13T13:15:04;0.60;;;0.20;;
45536;SDS011;31262;51.978;5.924;2022-09-13T13:17:41;0.77;;;0.20;;
45536;SDS011;31262;51.978;5.924;2022-09-13T13:31:08;1.58;;;0.13;;
45536;SDS011;31262;51.978;5.924;2022-09-13T13:33:45;0.70;;;0.10;;
45536;SDS011;31262;51.978;5.924;2022-09-13T13:36:24;1.15;;;0.10;;
45536;SDS011;31262;51.978;5.924;2022-09-13T13:38:52;1.48;;;0.20;;
45536;SDS011;31262;51.978;5.924;2022-09-13T13:44:01;0.93;;;0.10;;
45536;SDS011;31262;51.978;5.924;2022-09-13T13:46:46;1.58;;;0.17;;
45536;SDS011;31262;51.978;5.924;2022-09-13T14:02:44;1.38;;;0.20;;
45536;SDS011;31262;51.978;5.924;2022-09-13T14:20:08;1.73;;;0.40;;
45536;SDS011;31262;51.978;5.924;2022-09-13T14:25:12;2.00;;;0.30;;
45536;SDS011;31262;51.978;5.924;2022-09-13T14:27:38;0.82;;;0.20;;
45536;SDS011;31262;51.978;5.924;2022-09-13T14:32:46;1.48;;;0.30;;
45536;SDS011;31262;51.978;5.924;2022-09-13T14:38:18;1.50;;;0.30;;
45536;SDS011;31262;51.978;5.924;2022-09-13T14:40:47;1.65;;;0.20;;
45536;SDS011;31262;51.978;5.924;2022-09-13T14:43:18;0.90;;;0.20;;
45536;SDS011;31262;51.978;5.924;2022-09-13T14:45:47;1.45;;;0.20;;
45536;SDS011;31262;51.978;5.924;2022-09-13T14:48:22;2.42;;;0.20;;
45536;SDS011;31262;51.978;5.924;2022-09-13T14:51:16;1.20;;;0.20;;
45536;SDS011;31262;51.978;5.924;2022-09-13T14:53:53;1.30;;;0.20;;
45536;SDS011;31262;51.978;5.924;2022-09-13T14:56:31;1.60;;;0.20;;
45536;SDS011;31262;51.978;5.924;2022-09-13T14:59:06;1.45;;;0.20;;
45536;SDS011;31262;51.978;5.924;2022-09-13T15:01:39;1.65;;;0.20;;
45536;SDS011;31262;51.978;5.924;2022-09-13T15:04:05;1.67;;;0.20;;
45536;SDS011;31262;51.978;5.924;2022-09-13T15:06:35;1.00;;;0.20;;
45536;SDS011;31262;51.978;5.924;2022-09-13T15:11:58;1.85;;;0.20;;
45536;SDS011;31262;51.978;5.924;2022-09-13T15:14:25;0.50;;;0.15;;
45536;SDS011;31262;51.978;5.924;2022-09-13T15:16:52;1.27;;;0.30;;
45536;SDS011;31262;51.978;5.924;2022-09-13T15:19:26;1.25;;;0.22;;
45536;SDS011;31262;51.978;5.924;2022-09-13T15:22:01;1.42;;;0.22;;
45536;SDS011;31262;51.978;5.924;2022-09-13T15:24:31;1.50;;;0.30;;
45536;SDS011;31262;51.978;5.924;2022-09-13T15:27:01;1.95;;;0.35;;
45536;SDS011;31262;51.978;5.924;2022-09-13T15:29:28;0.65;;;0.20;;
45536;SDS011;31262;51.978;5.924;2022-09-13T15:31:58;1.83;;;0.25;;
45536;SDS011;31262;51.978;5.924;2022-09-13T15:34:25;1.33;;;0.20;;
45536;SDS011;31262;51.978;5.924;2022-09-13T15:37:11;0.80;;;0.15;;
45536;SDS011;31262;51.978;5.924;2022-09-13T15:39:48;1.95;;;0.20;;
45536;SDS011;31262;51.978;5.924;2022-09-13T15:42:26;1.20;;;0.20;;
45536;SDS011;31262;51.978;5.924;2022-09-13T15:44:51;1.13;;;0.20;;
45536;SDS011;31262;51.978;5.924;2022-09-13T15:47:17;0.75;;;0.10;;
45536;SDS011;31262;51.978;5.924;2022-09-13T15:49:48;1.27;;;0.20;;
45536;SDS011;31262;51.978;5.924;2022-09-13T15:52:15;0.75;;;0.20;;
45536;SDS011;31262;51.978;5.924;2022-09-13T15:54:43;1.20;;;0.20;;
45536;SDS011;31262;51.978;5.924;2022-09-13T15:57:21;1.08;;;0.20;;
45536;SDS011;31262;51.978;5.924;2022-09-13T15:59:48;1.05;;;0.20;;
45536;SDS011;31262;51.978;5.924;2022-09-13T16:02:29;1.33;;;0.30;;
45536;SDS011;31262;51.978;5.924;2022-09-13T16:04:56;0.77;;;0.20;;
45536;SDS011;31262;51.978;5.924;2022-09-13T16:07:23;1.85;;;0.32;;
45536;SDS011;31262;51.978;5.924;2022-09-13T16:09:49;1.05;;;0.20;;
45536;SDS011;31262;51.978;5.924;2022-09-13T16:12:15;1.13;;;0.25;;
45536;SDS011;31262;51.978;5.924;2022-09-13T16:14:42;1.33;;;0.15;;
45536;SDS011;31262;51.978;5.924;2022-09-13T16:17:13;0.60;;;0.20;;
45536;SDS011;31262;51.978;5.924;2022-09-13T16:19:44;0.95;;;0.20;;
45536;SDS011;31262;51.978;5.924;2022-09-13T16:22:10;1.00;;;0.20;;
45536;SDS011;31262;51.978;5.924;2022-09-13T16:24:36;1.35;;;0.20;;
45536;SDS011;31262;51.978;5.924;2022-09-13T16:27:02;1.92;;;0.20;;
45536;SDS011;31262;51.978;5.924;2022-09-13T16:29:27;0.88;;;0.20;;
45536;SDS011;31262;51.978;5.924;2022-09-13T16:31:53;1.70;;;0.20;;
45536;SDS011;31262;51.978;5.924;2022-09-13T16:34:19;1.17;;;0.20;;
45536;SDS011;31262;51.978;5.924;2022-09-13T16:36:45;0.80;;;0.20;;
45536;SDS011;31262;51.978;5.924;2022-09-13T16:39:11;0.82;;;0.20;;
45536;SDS011;31262;51.978;5.924;2022-09-13T16:41:38;1.30;;;0.20;;
45536;SDS011;31262;51.978;5.924;2022-09-13T16:44:04;1.73;;;0.20;;
45536;SDS011;31262;51.978;5.924;2022-09-13T16:46:30;1.10;;;0.20;;
45536;SDS011;31262;51.978;5.924;2022-09-13T16:48:56;0.95;;;0.10;;
45536;SDS011;31262;51.978;5.924;2022-09-13T16:51:22;1.10;;;0.20;;
45536;SDS011;31262;51.978;5.924;2022-09-13T16:53:49;1.75;;;0.13;;
45536;SDS011;31262;51.978;5.924;2022-09-13T16:56:17;2.00;;;0.20;;
45536;SDS011;31262;51.978;5.924;2022-09-13T16:58:46;1.65;;;0.20;;
45536;SDS011;31262;51.978;5.924;2022-09-13T17:01:15;1.38;;;0.10;;
45536;SDS011;31262;51.978;5.924;2022-09-13T17:04:07;1.48;;;0.20;;
45536;SDS011;31262;51.978;5.924;2022-09-13T17:06:32;1.52;;;0.20;;
45536;SDS011;31262;51.978;5.924;2022-09-13T17:08:59;1.52;;;0.20;;
45536;SDS011;31262;51.978;5.924;2022-09-13T17:11:31;2.40;;;0.20;;
45536;SDS011;31262;51.978;5.924;2022-09-13T17:14:00;3.50;;;0.22;;
45536;SDS011;31262;51.978;5.924;2022-09-13T17:16:30;2.63;;;0.20;;
45536;SDS011;31262;51.978;5.924;2022-09-13T17:18:59;1.50;;;0.13;;
45536;SDS011;31262;51.978;5.924;2022-09-13T17:21:27;4.57;;;0.30;;
45536;SDS011;31262;51.978;5.924;2022-09-13T17:23:53;2.45;;;0.20;;
45536;SDS011;31262;51.978;5.924;2022-09-13T17:26:19;3.05;;;0.20;;
45536;SDS011;31262;51.978;5.924;2022-09-13T17:28:46;1.90;;;0.15;;
45536;SDS011;31262;51.978;5.924;2022-09-13T17:31:12;3.22;;;0.28;;
45536;SDS011;31262;51.978;5.924;2022-09-13T17:33:38;1.73;;;0.10;;
45536;SDS011;31262;51.978;5.924;2022-09-13T17:36:08;2.10;;;0.40;;
45536;SDS011;31262;51.978;5.924;2022-09-13T17:38:35;1.90;;;0.30;;
45536;SDS011;31262;51.978;5.924;2022-09-13T17:41:05;1.98;;;0.30;;
45536;SDS011;31262;51.978;5.924;2022-09-13T17:43:34;0.95;;;0.17;;
45536;SDS011;31262;51.978;5.924;2022-09-13T17:46:07;1.67;;;0.20;;
45536;SDS011;31262;51.978;5.924;2022-09-13T17:48:36;1.83;;;0.20;;
45536;SDS011;31262;51.978;5.924;2022-09-13T17:51:05;1.92;;;0.20;;
45536;SDS011;31262;51.978;5.924;2022-09-13T17:53:36;2.05;;;0.20;;
45536;SDS011;31262;51.978;5.924;2022-09-13T17:56:03;1.35;;;0.20;;
45536;SDS011;31262;51.978;5.924;2022-09-13T17:58:29;2.00;;;0.20;;
45536;SDS011;31262;51.978;5.924;2022-09-13T18:00:59;1.60;;;0.20;;
45536;SDS011;31262;51.978;5.924;2022-09-13T18:03:28;2.92;;;0.22;;
45536;SDS011;31262;51.978;5.924;2022-09-13T18:05:56;1.27;;;0.20;;
45536;SDS011;31262;51.978;5.924;2022-09-13T18:08:23;1.70;;;0.20;;
45536;SDS011;31262;51.978;5.924;2022-09-13T18:10:50;3.00;;;0.20;;
45536;SDS011;31262;51.978;5.924;2022-09-13T18:13:16;1.05;;;0.20;;
45536;SDS011;31262;51.978;5.924;2022-09-13T18:15:42;2.38;;;0.20;;
45536;SDS011;31262;51.978;5.924;2022-09-13T18:18:08;1.63;;;0.20;;
45536;SDS011;31262;51.978;5.924;2022-09-13T18:20:33;1.88;;;0.20;;
45536;SDS011;31262;51.978;5.924;2022-09-13T18:22:59;2.10;;;0.20;;
45536;SDS011;31262;51.978;5.924;2022-09-13T18:25:25;2.38;;;0.40;;
45536;SDS011;31262;51.978;5.924;2022-09-13T18:27:51;1.85;;;0.20;;
45536;SDS011;31262;51.978;5.924;2022-09-13T18:30:16;1.50;;;0.20;;
45536;SDS011;31262;51.978;5.924;2022-09-13T18:32:42;0.93;;;0.10;;
45536;SDS011;31262;51.978;5.924;2022-09-13T18:35:07;1.80;;;0.20;;
45536;SDS011;31262;51.978;5.924;2022-09-13T18:37:33;3.00;;;0.30;;
45536;SDS011;31262;51.978;5.924;2022-09-13T18:39:59;1.52;;;0.20;;
45536;SDS011;31262;51.978;5.924;2022-09-13T18:42:25;2.88;;;0.28;;
45536;SDS011;31262;51.978;5.924;2022-09-13T18:44:50;2.70;;;0.20;;